RJTJ(METAR)
02/28 07:00
METAR RJTJ 272200Z 35006KT 320V020 9999 FEW020 BKN040 03/M06 Q1026
RMK 1SC020 7SC040 A3031=
戻る
トップページへ戻る
IMOC Co,.Ltd.